createdAt,value
2022-10-06T00:00:48.093Z,102035.03
2022-10-06T00:03:14.887Z,102043.78
2022-10-06T00:05:41.588Z,102040.97
2022-10-06T00:08:10.226Z,102053.91
2022-10-06T00:10:37.292Z,102056.06
2022-10-06T00:13:05.247Z,102056.88
2022-10-06T00:15:32.790Z,102069.44
2022-10-06T00:17:59.472Z,102074.94
2022-10-06T00:20:26.811Z,102072.59
2022-10-06T00:22:53.451Z,102078.84
2022-10-06T00:25:20.957Z,102086.31
2022-10-06T00:27:48.785Z,102098.22
2022-10-06T00:30:17.988Z,102100.38
2022-10-06T00:32:50.227Z,102093.94
2022-10-06T00:35:16.880Z,102104.16
2022-10-06T00:37:43.586Z,102114.25
2022-10-06T00:40:10.501Z,102121.50
2022-10-06T00:42:49.095Z,102128.13
2022-10-06T00:45:18.049Z,102135.38
2022-10-06T00:47:44.767Z,102135.03
2022-10-06T00:50:12.801Z,102134.88
2022-10-06T00:52:40.197Z,102135.22
2022-10-06T00:55:09.502Z,102134.72
2022-10-06T00:57:37.140Z,102138.84
2022-10-06T01:00:04.671Z,102143.13
2022-10-06T01:02:35.916Z,102150.09
2022-10-06T01:05:03.753Z,102150.53
2022-10-06T01:07:30.326Z,102152.69
2022-10-06T01:09:58.141Z,102154.00
2022-10-06T01:12:26.015Z,102161.06
2022-10-06T01:14:52.675Z,102171.94
2022-10-06T01:17:21.052Z,102168.81
2022-10-06T01:19:51.064Z,102179.88
2022-10-06T01:22:19.685Z,102177.88
2022-10-06T01:24:50.707Z,102184.44
2022-10-06T01:27:18.094Z,102179.84
2022-10-06T01:29:44.930Z,102182.28
2022-10-06T01:32:11.713Z,102187.41
2022-10-06T01:34:38.327Z,102186.91
2022-10-06T01:37:04.900Z,102196.13
2022-10-06T01:39:31.447Z,102197.44
2022-10-06T01:41:59.500Z,102197.94
2022-10-06T01:44:26.069Z,102202.53
2022-10-06T01:46:52.594Z,102193.94
2022-10-06T01:49:19.237Z,102202.34
2022-10-06T01:51:45.800Z,102203.00
2022-10-06T01:54:12.512Z,102213.94
2022-10-06T01:56:39.088Z,102205.03
2022-10-06T01:59:07.031Z,102215.91
2022-10-06T02:01:33.790Z,102212.63
2022-10-06T02:04:00.415Z,102211.28
2022-10-06T02:06:27.089Z,102213.94
2022-10-06T02:08:53.732Z,102212.94
2022-10-06T02:11:20.248Z,102212.47
2022-10-06T02:13:46.783Z,102223.69
2022-10-06T02:16:14.854Z,102224.50
2022-10-06T02:18:41.483Z,102236.19
2022-10-06T02:21:13.669Z,102235.84
2022-10-06T02:23:40.355Z,102238.78
2022-10-06T02:26:07.030Z,102240.25
2022-10-06T02:28:34.059Z,102241.28
2022-10-06T02:31:01.633Z,102241.97
2022-10-06T02:33:29.671Z,102251.47
2022-10-06T02:35:56.713Z,102260.63
2022-10-06T02:38:24.005Z,102266.69
2022-10-06T02:40:50.858Z,102263.78
2022-10-06T02:43:17.598Z,102265.38
2022-10-06T02:45:44.145Z,102270.84
2022-10-06T02:48:11.642Z,102270.84
2022-10-06T02:50:39.637Z,102266.69
2022-10-06T02:53:08.679Z,102270.66
2022-10-06T02:55:35.819Z,102269.44
2022-10-06T02:58:03.156Z,102273.34
2022-10-06T03:00:29.709Z,102274.03
2022-10-06T03:02:56.285Z,102282.97
2022-10-06T03:05:22.883Z,102282.50
2022-10-06T03:07:50.800Z,102290.19
2022-10-06T03:10:17.322Z,102289.00
2022-10-06T03:12:43.923Z,102294.38
2022-10-06T03:15:10.697Z,102300.00
2022-10-06T03:17:37.242Z,102300.50
2022-10-06T03:20:04.093Z,102301.34
2022-10-06T03:22:30.644Z,102307.28
2022-10-06T03:24:59.082Z,102306.84
2022-10-06T03:27:25.649Z,102310.53
2022-10-06T03:29:52.260Z,102319.41
2022-10-06T03:32:19.263Z,102317.34
2022-10-06T03:34:47.799Z,102334.47
2022-10-06T03:37:14.467Z,102333.75
2022-10-06T03:39:41.148Z,102334.78
2022-10-06T03:42:09.088Z,102331.16
2022-10-06T03:44:35.653Z,102336.53
2022-10-06T03:47:02.340Z,102339.56
2022-10-06T03:49:29.003Z,102344.75
2022-10-06T03:51:55.606Z,102347.88
2022-10-06T03:54:22.231Z,102346.84
2022-10-06T03:56:48.827Z,102354.19
2022-10-06T03:59:19.419Z,102362.69
2022-10-06T04:01:47.146Z,102362.56
2022-10-06T04:04:14.378Z,102367.50
2022-10-06T04:06:42.030Z,102366.38
2022-10-06T04:09:14.742Z,102368.03
2022-10-06T04:11:42.501Z,102376.13
2022-10-06T04:14:09.893Z,102386.56
2022-10-06T04:16:38.458Z,102385.31
2022-10-06T04:19:05.638Z,102397.13
2022-10-06T04:21:33.222Z,102400.25
2022-10-06T04:24:00.219Z,102402.31
2022-10-06T04:26:27.759Z,102406.94
2022-10-06T04:28:54.526Z,102408.78
2022-10-06T04:31:22.481Z,102412.47
2022-10-06T04:33:52.470Z,102417.25
2022-10-06T04:36:23.054Z,102418.38
2022-10-06T04:38:50.407Z,102419.06
2022-10-06T04:41:17.889Z,102427.97
2022-10-06T04:43:45.125Z,102429.13
2022-10-06T04:46:30.675Z,102436.97
2022-10-06T04:48:59.637Z,102433.66
2022-10-06T04:51:26.783Z,102432.59
2022-10-06T04:53:53.516Z,102440.22
2022-10-06T04:56:21.314Z,102436.59
2022-10-06T04:58:48.690Z,102441.22
2022-10-06T05:01:16.312Z,102441.81
2022-10-06T05:03:43.141Z,102437.44
2022-10-06T05:06:12.710Z,102446.19
2022-10-06T05:08:39.908Z,102450.66
2022-10-06T05:11:07.844Z,102444.84
2022-10-06T05:13:35.011Z,102447.09
2022-10-06T05:16:02.096Z,102450.22
2022-10-06T05:18:29.386Z,102447.88
2022-10-06T05:20:57.048Z,102447.09
2022-10-06T05:23:26.131Z,102449.38
2022-10-06T05:25:53.310Z,102452.19
2022-10-06T05:28:20.080Z,102460.34
2022-10-06T05:30:54.758Z,102462.28
2022-10-06T05:33:21.342Z,102465.91
2022-10-06T05:35:50.964Z,102474.81
2022-10-06T05:38:17.489Z,102479.34
2022-10-06T05:40:45.440Z,102480.50
2022-10-06T05:43:12.003Z,102488.91
2022-10-06T05:45:38.645Z,102482.75
2022-10-06T05:48:05.292Z,102490.28
2022-10-06T05:50:31.841Z,102486.06
2022-10-06T05:52:58.397Z,102498.53
2022-10-06T05:55:26.311Z,102500.69
2022-10-06T05:57:55.722Z,102503.66
2022-10-06T06:00:22.277Z,102509.84
2022-10-06T06:02:48.885Z,102526.97
2022-10-06T06:05:15.506Z,102516.88
2022-10-06T06:07:42.075Z,102528.88
2022-10-06T06:10:09.435Z,102519.16
2022-10-06T06:12:35.982Z,102517.53
2022-10-06T06:15:22.625Z,102522.00
2022-10-06T06:17:49.266Z,102526.97
2022-10-06T06:20:15.961Z,102524.38
2022-10-06T06:22:42.534Z,102534.25
2022-10-06T06:25:09.634Z,102533.47
2022-10-06T06:27:36.259Z,102535.72
2022-10-06T06:30:04.549Z,102543.78
2022-10-06T06:32:31.899Z,102550.97
2022-10-06T06:34:59.026Z,102551.28
2022-10-06T06:37:25.534Z,102556.88
2022-10-06T06:39:52.091Z,102550.09
2022-10-06T06:42:18.808Z,102566.41
2022-10-06T06:44:45.812Z,102566.97
2022-10-06T06:47:13.780Z,102565.00
2022-10-06T06:49:40.710Z,102572.09
2022-10-06T06:52:07.274Z,102580.16
2022-10-06T06:54:33.858Z,102585.88
2022-10-06T06:57:00.775Z,102590.91
2022-10-06T06:59:27.411Z,102598.75
2022-10-06T07:01:53.998Z,102604.81
2022-10-06T07:04:21.968Z,102600.47
2022-10-06T07:06:57.195Z,102603.06
2022-10-06T07:09:26.025Z,102621.69
2022-10-06T07:11:52.889Z,102625.38
2022-10-06T07:14:22.530Z,102628.75
2022-10-06T07:17:07.373Z,102629.91
2022-10-06T07:19:58.284Z,102636.72
2022-10-06T07:22:44.002Z,102635.25
2022-10-06T07:25:13.272Z,102640.88
2022-10-06T07:27:43.764Z,102639.72
2022-10-06T07:30:11.019Z,102649.53
2022-10-06T07:32:37.866Z,102652.31
2022-10-06T07:35:06.644Z,102647.94
2022-10-06T07:37:34.928Z,102645.75
2022-10-06T07:40:02.024Z,102653.13
2022-10-06T07:42:28.659Z,102654.44
2022-10-06T07:45:13.820Z,102656.84
2022-10-06T07:47:40.385Z,102651.72
2022-10-06T07:50:08.843Z,102653.00
2022-10-06T07:52:39.213Z,102655.31
2022-10-06T07:55:06.556Z,102656.50
2022-10-06T07:57:35.558Z,102663.78
2022-10-06T08:00:05.450Z,102671.06
2022-10-06T08:02:35.555Z,102675.47
2022-10-06T08:05:02.755Z,102674.50
2022-10-06T08:07:30.726Z,102683.16
2022-10-06T08:09:57.229Z,102688.56
2022-10-06T08:12:32.997Z,102687.72
2022-10-06T08:15:06.982Z,102691.34
2022-10-06T08:17:35.424Z,102696.13
2022-10-06T08:20:02.163Z,102704.06
2022-10-06T08:22:30.247Z,102706.22
2022-10-06T08:25:08.405Z,102712.53
2022-10-06T08:27:35.856Z,102715.19
2022-10-06T08:30:02.889Z,102710.03
2022-10-06T08:32:29.523Z,102723.63
2022-10-06T08:34:56.495Z,102723.97
2022-10-06T08:37:26.982Z,102726.75
2022-10-06T08:39:55.657Z,102721.50
2022-10-06T08:42:26.514Z,102719.31
2022-10-06T08:44:56.878Z,102726.38
2022-10-06T08:47:24.577Z,102726.88
2022-10-06T08:49:52.777Z,102744.38
2022-10-06T08:52:26.523Z,102738.69
2022-10-06T08:55:00.381Z,102747.19
2022-10-06T08:57:30.007Z,102738.50
2022-10-06T08:59:58.498Z,102739.91
2022-10-06T09:02:29.341Z,102750.72
2022-10-06T09:04:57.613Z,102748.94
2022-10-06T09:07:28.042Z,102745.19
2022-10-06T09:10:03.300Z,102753.03
2022-10-06T09:12:32.506Z,102756.78
2022-10-06T09:15:06.342Z,102761.19
2022-10-06T09:17:35.424Z,102770.50
2022-10-06T09:20:44.205Z,102762.53
2022-10-06T09:25:58.293Z,102767.13
2022-10-06T09:28:27.632Z,102771.91
2022-10-06T09:30:55.460Z,102763.19
2022-10-06T09:33:25.212Z,102764.56
2022-10-06T09:36:10.695Z,102765.25
2022-10-06T09:38:49.350Z,102767.00
2022-10-06T09:41:17.685Z,102770.56
2022-10-06T09:43:53.758Z,102767.25
2022-10-06T09:46:26.921Z,102769.16
2022-10-06T09:49:19.227Z,102776.06
2022-10-06T09:52:00.645Z,102771.94
2022-10-06T09:54:28.894Z,102771.97
2022-10-06T09:56:59.424Z,102771.81
2022-10-06T09:59:35.060Z,102770.94
2022-10-06T10:02:05.276Z,102774.91
2022-10-06T10:04:36.428Z,102771.78
2022-10-06T10:07:24.283Z,102767.41
2022-10-06T10:09:51.408Z,102776.09
2022-10-06T10:12:28.170Z,102779.63
2022-10-06T10:15:02.011Z,102781.34
2022-10-06T10:17:47.539Z,102785.38
2022-10-06T10:20:34.293Z,102790.88
2022-10-06T10:23:05.359Z,102783.91
2022-10-06T10:26:00.386Z,102791.72
2022-10-06T10:28:48.176Z,102799.16
2022-10-06T10:31:22.797Z,102796.53
2022-10-06T10:34:11.766Z,102801.34
2022-10-06T10:36:51.756Z,102791.63
2022-10-06T10:39:29.932Z,102784.69
2022-10-06T10:41:59.096Z,102784.44
2022-10-06T10:44:31.896Z,102780.78
2022-10-06T10:47:11.399Z,102794.28
2022-10-06T10:49:41.796Z,102786.19
2022-10-06T10:52:14.218Z,102781.16
2022-10-06T10:54:48.428Z,102784.94
2022-10-06T10:57:17.952Z,102786.50
2022-10-06T10:59:57.807Z,102787.06
2022-10-06T11:02:24.954Z,102796.88
2022-10-06T11:04:54.866Z,102786.47
2022-10-06T11:07:29.494Z,102792.72
2022-10-06T11:10:04.095Z,102780.97
2022-10-06T11:12:49.962Z,102791.13
2022-10-06T11:15:24.795Z,102792.22
2022-10-06T11:17:56.842Z,102796.28
2022-10-06T11:20:38.897Z,102798.88
2022-10-06T11:23:39.043Z,102793.66
2022-10-06T11:26:17.975Z,102791.69
2022-10-06T11:28:49.868Z,102794.53
2022-10-06T11:31:28.015Z,102792.50
2022-10-06T11:33:58.408Z,102804.31
2022-10-06T11:36:35.067Z,102791.34
2022-10-06T11:39:11.893Z,102789.22
2022-10-06T11:41:45.653Z,102785.28
2022-10-06T11:44:16.519Z,102789.75
2022-10-06T11:46:53.170Z,102788.63
2022-10-06T11:49:52.056Z,102784.38
2022-10-06T11:52:45.114Z,102790.88
2022-10-06T11:55:19.858Z,102782.03
2022-10-06T11:58:41.387Z,102784.50
2022-10-06T12:01:03.436Z,102773.41
2022-10-06T12:03:46.362Z,102776.03
2022-10-06T12:06:57.607Z,102773.66
2022-10-06T12:09:46.255Z,102770.59
2022-10-06T12:13:06.311Z,102770.44
2022-10-06T12:18:41.922Z,102767.97
2022-10-06T12:21:17.693Z,102762.66
2022-10-06T12:24:20.217Z,102759.81
2022-10-06T12:26:58.987Z,102748.75
2022-10-06T12:29:41.644Z,102754.88
2022-10-06T12:32:19.473Z,102753.34
2022-10-06T12:34:58.622Z,102752.38
2022-10-06T12:37:40.096Z,102747.97
2022-10-06T12:40:46.615Z,102749.06
2022-10-06T12:44:05.922Z,102748.00
2022-10-06T12:46:45.144Z,102747.72
2022-10-06T12:49:39.027Z,102741.00
2022-10-06T12:52:17.211Z,102751.97
2022-10-06T12:54:53.619Z,102749.78
2022-10-06T12:57:20.823Z,102750.84
2022-10-06T12:59:49.554Z,102737.59
2022-10-06T13:02:20.130Z,102739.72
2022-10-06T13:04:51.487Z,102733.91
2022-10-06T13:07:22.442Z,102735.09
2022-10-06T13:09:51.174Z,102722.81
2022-10-06T13:12:26.825Z,102730.50
2022-10-06T13:15:11.337Z,102730.47
2022-10-06T13:17:40.927Z,102724.66
2022-10-06T13:20:21.391Z,102719.78
2022-10-06T13:22:57.838Z,102724.25
2022-10-06T13:25:33.637Z,102716.00
2022-10-06T13:28:02.378Z,102723.53
2022-10-06T13:30:29.568Z,102719.63
2022-10-06T13:32:58.229Z,102716.63
2022-10-06T13:35:26.585Z,102718.06
2022-10-06T13:37:55.011Z,102721.84
2022-10-06T13:40:44.039Z,102713.25
2022-10-06T13:43:17.033Z,102718.94
2022-10-06T13:45:48.385Z,102714.09
2022-10-06T13:48:20.781Z,102709.41
2022-10-06T13:50:49.348Z,102709.63
2022-10-06T13:53:29.540Z,102713.81
2022-10-06T13:55:58.739Z,102715.72
2022-10-06T13:58:27.920Z,102710.53
2022-10-06T14:00:57.125Z,102713.56
2022-10-06T14:03:28.432Z,102708.88
2022-10-06T14:06:08.387Z,102707.66
2022-10-06T14:08:36.207Z,102716.34
2022-10-06T14:11:06.942Z,102702.94
2022-10-06T14:13:41.411Z,102704.53
2022-10-06T14:16:10.577Z,102705.31
2022-10-06T14:18:40.085Z,102708.50
2022-10-06T14:21:18.881Z,102705.81
2022-10-06T14:23:49.620Z,102709.28
2022-10-06T14:26:19.192Z,102704.53
2022-10-06T14:28:47.678Z,102702.66
2022-10-06T14:31:14.983Z,102700.72
2022-10-06T14:33:42.152Z,102709.22
2022-10-06T14:36:16.139Z,102697.78
2022-10-06T14:38:43.031Z,102705.66
2022-10-06T14:41:09.904Z,102700.88
2022-10-06T14:43:40.090Z,102693.56
2022-10-06T14:46:10.028Z,102695.22
2022-10-06T14:48:37.108Z,102687.97
2022-10-06T14:51:04.822Z,102678.72
2022-10-06T14:53:32.074Z,102681.59
2022-10-06T14:56:01.706Z,102685.84
2022-10-06T14:58:28.469Z,102682.81
2022-10-06T15:01:04.147Z,102683.84
2022-10-06T15:03:31.363Z,102684.91
2022-10-06T15:06:19.538Z,102679.75
2022-10-06T15:08:50.997Z,102685.88
2022-10-06T15:11:18.988Z,102680.47
2022-10-06T15:16:15.192Z,102675.94
2022-10-06T15:18:42.914Z,102667.78
2022-10-06T15:21:11.316Z,102667.59
2022-10-06T15:23:39.506Z,102674.47
2022-10-06T15:26:24.933Z,102666.69
2022-10-06T15:29:00.725Z,102652.88
2022-10-06T15:31:31.016Z,102652.63
2022-10-06T15:34:00.202Z,102650.22
2022-10-06T15:36:29.239Z,102646.53
2022-10-06T15:38:57.905Z,102649.91
2022-10-06T15:41:25.352Z,102654.66
2022-10-06T15:44:00.066Z,102647.03
2022-10-06T15:46:30.752Z,102646.38
2022-10-06T15:49:00.936Z,102643.84
2022-10-06T15:51:29.127Z,102645.28
2022-10-06T15:53:57.991Z,102645.78
2022-10-06T15:56:26.118Z,102640.84
2022-10-06T15:58:53.432Z,102644.88
2022-10-06T16:01:26.178Z,102648.06
2022-10-06T16:03:54.875Z,102645.69
2022-10-06T16:06:30.385Z,102638.34
2022-10-06T16:08:57.152Z,102642.59
2022-10-06T16:11:23.903Z,102642.69
2022-10-06T16:13:52.181Z,102640.47
2022-10-06T16:16:19.010Z,102648.13
2022-10-06T16:18:45.851Z,102643.19
2022-10-06T16:21:13.955Z,102645.19
2022-10-06T16:23:40.731Z,102646.44
2022-10-06T16:26:07.598Z,102630.75
2022-10-06T16:28:34.488Z,102630.75
2022-10-06T16:31:01.426Z,102626.94
2022-10-06T16:33:28.294Z,102630.13
2022-10-06T16:35:55.966Z,102630.91
2022-10-06T16:38:24.849Z,102622.66
2022-10-06T16:40:56.514Z,102623.41
2022-10-06T16:43:23.843Z,102627.69
2022-10-06T16:46:01.772Z,102632.19
2022-10-06T16:48:29.654Z,102632.81
2022-10-06T16:51:03.933Z,102628.78
2022-10-06T16:53:36.156Z,102624.56
2022-10-06T16:56:04.009Z,102627.31
2022-10-06T16:58:38.411Z,102627.34
2022-10-06T17:01:05.896Z,102621.81
2022-10-06T17:03:32.811Z,102617.41
2022-10-06T17:06:05.553Z,102626.06
2022-10-06T17:08:34.410Z,102616.66
2022-10-06T17:11:03.163Z,102617.03
2022-10-06T17:13:30.020Z,102618.19
2022-10-06T17:16:01.796Z,102620.50
2022-10-06T17:18:28.779Z,102625.47
2022-10-06T17:20:56.784Z,102624.63
2022-10-06T17:23:23.821Z,102626.94
2022-10-06T17:26:07.433Z,102634.22
2022-10-06T17:28:35.014Z,102630.22
2022-10-06T17:31:02.447Z,102630.34
2022-10-06T17:33:34.102Z,102629.47
2022-10-06T17:36:09.499Z,102631.41
2022-10-06T17:38:40.353Z,102636.13
2022-10-06T17:41:12.432Z,102631.16
2022-10-06T17:43:40.964Z,102630.28
2022-10-06T17:46:16.108Z,102633.00
2022-10-06T17:48:45.009Z,102631.16
2022-10-06T17:51:14.252Z,102628.63
2022-10-06T17:53:44.027Z,102628.28
2022-10-06T17:56:13.291Z,102634.75
2022-10-06T17:58:41.946Z,102638.72
2022-10-06T18:01:11.180Z,102635.91
2022-10-06T18:03:41.085Z,102641.16
2022-10-06T18:06:11.629Z,102635.53
2022-10-06T18:08:39.073Z,102637.94
2022-10-06T18:11:25.473Z,102640.06
2022-10-06T18:13:54.440Z,102631.91
2022-10-06T18:16:22.947Z,102634.72
2022-10-06T18:18:54.675Z,102629.13
2022-10-06T18:21:23.168Z,102629.59
2022-10-06T18:23:50.642Z,102634.81
2022-10-06T18:26:19.559Z,102631.09
2022-10-06T18:28:48.119Z,102629.03
2022-10-06T18:31:18.537Z,102622.81
2022-10-06T18:36:34.552Z,102615.75
2022-10-06T18:39:01.482Z,102618.38
2022-10-06T18:41:28.713Z,102620.22
2022-10-06T18:43:55.677Z,102620.84
2022-10-06T18:46:43.014Z,102618.56
2022-10-06T18:49:12.341Z,102604.44
2022-10-06T18:51:40.715Z,102606.41
2022-10-06T18:54:10.932Z,102606.06
2022-10-06T18:56:38.497Z,102620.75
2022-10-06T18:59:08.749Z,102615.75
2022-10-06T19:01:40.933Z,102617.41
2022-10-06T19:04:10.136Z,102618.53
2022-10-06T19:06:38.908Z,102625.91
2022-10-06T19:09:06.763Z,102622.63
2022-10-06T19:11:48.509Z,102628.00
2022-10-06T19:14:17.265Z,102621.06
2022-10-06T19:16:45.875Z,102614.81
2022-10-06T19:19:14.769Z,102622.91
2022-10-06T19:21:43.201Z,102614.31
2022-10-06T19:24:12.646Z,102622.00
2022-10-06T19:26:45.061Z,102619.81
2022-10-06T19:29:14.198Z,102626.78
2022-10-06T19:31:43.463Z,102618.91
2022-10-06T19:34:14.460Z,102614.22
2022-10-06T19:36:41.742Z,102614.41
2022-10-06T19:39:12.524Z,102620.94
2022-10-06T19:41:58.807Z,102622.63
2022-10-06T19:44:26.468Z,102618.84
2022-10-06T19:46:55.100Z,102624.88
2022-10-06T19:49:23.513Z,102616.13
2022-10-06T19:51:51.050Z,102622.47
2022-10-06T19:54:19.124Z,102617.81
2022-10-06T19:56:46.431Z,102624.91
2022-10-06T19:59:15.637Z,102631.03
2022-10-06T20:01:43.054Z,102619.47
2022-10-06T20:04:10.492Z,102628.34
2022-10-06T20:06:41.529Z,102624.69
2022-10-06T20:09:10.440Z,102628.03
2022-10-06T20:11:38.570Z,102625.16
2022-10-06T20:14:10.535Z,102621.81
2022-10-06T20:16:42.517Z,102622.44
2022-10-06T20:19:11.299Z,102622.44
2022-10-06T20:21:39.943Z,102620.16
2022-10-06T20:24:10.763Z,102624.72
2022-10-06T20:26:40.278Z,102628.69
2022-10-06T20:29:08.771Z,102617.56
2022-10-06T20:31:37.486Z,102615.38
2022-10-06T20:34:06.510Z,102609.56
2022-10-06T20:36:34.906Z,102611.84
2022-10-06T20:39:22.775Z,102615.28
2022-10-06T20:41:49.960Z,102623.19
2022-10-06T20:44:16.880Z,102618.50
2022-10-06T20:46:43.977Z,102617.88
2022-10-06T20:49:13.972Z,102619.66
2022-10-06T20:51:44.733Z,102617.97
2022-10-06T20:54:13.944Z,102615.81
2022-10-06T20:56:40.723Z,102615.81
2022-10-06T20:59:10.546Z,102614.34
2022-10-06T21:01:39.776Z,102611.75
2022-10-06T21:04:09.102Z,102611.44
2022-10-06T21:06:40.119Z,102601.16
2022-10-06T21:09:08.935Z,102606.47
2022-10-06T21:11:37.067Z,102607.38
2022-10-06T21:14:06.921Z,102605.84
2022-10-06T21:16:35.264Z,102596.94
2022-10-06T21:19:03.917Z,102597.00
2022-10-06T21:21:30.724Z,102601.47
2022-10-06T21:23:57.569Z,102595.69
2022-10-06T21:26:28.338Z,102591.19
2022-10-06T21:28:56.789Z,102595.16
2022-10-06T21:31:25.186Z,102593.25
2022-10-06T21:33:53.726Z,102590.25
2022-10-06T21:36:22.064Z,102588.59
2022-10-06T21:38:50.515Z,102589.22
2022-10-06T21:41:32.032Z,102586.53
2022-10-06T21:44:01.799Z,102581.94
2022-10-06T21:46:30.977Z,102577.59
2022-10-06T21:48:59.165Z,102573.63
2022-10-06T21:51:27.597Z,102576.44
2022-10-06T21:53:58.533Z,102572.81
2022-10-06T21:56:26.447Z,102567.00
2022-10-06T21:58:55.726Z,102571.34
2022-10-06T22:01:26.346Z,102571.47
2022-10-06T22:03:53.736Z,102561.91
2022-10-06T22:06:21.503Z,102559.22
2022-10-06T22:08:48.991Z,102560.38
2022-10-06T22:11:18.287Z,102552.03
2022-10-06T22:13:47.122Z,102554.22
2022-10-06T22:16:16.073Z,102557.97
2022-10-06T22:18:44.706Z,102553.09
2022-10-06T22:21:13.553Z,102548.41
2022-10-06T22:23:40.953Z,102548.28
2022-10-06T22:26:09.013Z,102548.13
2022-10-06T22:28:36.451Z,102540.66
2022-10-06T22:31:05.001Z,102548.03
2022-10-06T22:33:32.036Z,102537.59
2022-10-06T22:36:00.539Z,102539.78
2022-10-06T22:38:27.930Z,102539.59
2022-10-06T22:40:59.525Z,102528.91
2022-10-06T22:43:26.463Z,102529.59
2022-10-06T22:45:53.263Z,102519.81
2022-10-06T22:48:20.096Z,102519.44
2022-10-06T22:50:47.181Z,102518.28
2022-10-06T22:53:16.211Z,102521.53
2022-10-06T22:55:42.991Z,102522.56
2022-10-06T22:58:10.020Z,102507.94
2022-10-06T23:00:36.991Z,102509.91
2022-10-06T23:03:04.215Z,102507.94
2022-10-06T23:05:31.291Z,102506.19
2022-10-06T23:07:58.052Z,102507.53
2022-10-06T23:10:29.564Z,102506.41
2022-10-06T23:12:58.412Z,102500.38
2022-10-06T23:15:25.865Z,102505.34
2022-10-06T23:17:52.699Z,102497.25
2022-10-06T23:20:20.882Z,102495.09
2022-10-06T23:22:47.832Z,102486.16
2022-10-06T23:25:14.652Z,102486.78
2022-10-06T23:27:42.940Z,102487.41
2022-10-06T23:30:10.751Z,102473.28
2022-10-06T23:32:37.603Z,102473.78
2022-10-06T23:35:05.298Z,102476.41
2022-10-06T23:37:32.314Z,102468.31
2022-10-06T23:39:59.105Z,102471.84
2022-10-06T23:42:25.857Z,102466.25
2022-10-06T23:44:54.411Z,102461.16
2022-10-06T23:47:21.244Z,102462.91
2022-10-06T23:49:48.074Z,102455.03
2022-10-06T23:52:14.770Z,102450.25
2022-10-06T23:54:41.560Z,102444.66
2022-10-06T23:57:09.342Z,102443.41
2022-10-06T23:59:36.283Z,102450.00
